sensor_id;sensor_type;location;lat;lon;timestamp;P1;durP1;ratioP1;P2;durP2;ratioP2
79646;SDS011;69119;41.718;21.786;2024-01-06T00:01:50;168.52;;;98.32;;
79646;SDS011;69119;41.718;21.786;2024-01-06T00:04:16;184.30;;;112.82;;
79646;SDS011;69119;41.718;21.786;2024-01-06T00:06:42;216.23;;;123.85;;
79646;SDS011;69119;41.718;21.786;2024-01-06T00:09:08;204.23;;;111.60;;
79646;SDS011;69119;41.718;21.786;2024-01-06T00:11:34;234.25;;;126.38;;
79646;SDS011;69119;41.718;21.786;2024-01-06T00:14:00;213.73;;;119.13;;
79646;SDS011;69119;41.718;21.786;2024-01-06T00:16:26;236.13;;;132.88;;
79646;SDS011;69119;41.718;21.786;2024-01-06T00:18:52;243.25;;;133.65;;
79646;SDS011;69119;41.718;21.786;2024-01-06T00:21:18;237.88;;;137.32;;
79646;SDS011;69119;41.718;21.786;2024-01-06T00:23:44;260.83;;;140.32;;
79646;SDS011;69119;41.718;21.786;2024-01-06T00:26:10;239.30;;;131.70;;
79646;SDS011;69119;41.718;21.786;2024-01-06T00:28:37;211.10;;;121.35;;
79646;SDS011;69119;41.718;21.786;2024-01-06T00:31:04;232.43;;;131.65;;
79646;SDS011;69119;41.718;21.786;2024-01-06T00:33:30;241.25;;;133.93;;
79646;SDS011;69119;41.718;21.786;2024-01-06T00:35:56;223.32;;;121.20;;
79646;SDS011;69119;41.718;21.786;2024-01-06T00:38:23;226.75;;;121.22;;
79646;SDS011;69119;41.718;21.786;2024-01-06T00:40:49;313.42;;;166.35;;
79646;SDS011;69119;41.718;21.786;2024-01-06T00:43:15;248.73;;;133.05;;
79646;SDS011;69119;41.718;21.786;2024-01-06T00:45:41;251.18;;;148.25;;
79646;SDS011;69119;41.718;21.786;2024-01-06T00:48:07;286.13;;;158.77;;
79646;SDS011;69119;41.718;21.786;2024-01-06T00:50:33;258.65;;;150.98;;
79646;SDS011;69119;41.718;21.786;2024-01-06T00:52:59;255.88;;;145.82;;
79646;SDS011;69119;41.718;21.786;2024-01-06T00:55:25;264.08;;;147.52;;
79646;SDS011;69119;41.718;21.786;2024-01-06T00:57:51;264.48;;;152.73;;
79646;SDS011;69119;41.718;21.786;2024-01-06T01:00:17;227.10;;;130.13;;
79646;SDS011;69119;41.718;21.786;2024-01-06T01:02:43;227.88;;;128.70;;
79646;SDS011;69119;41.718;21.786;2024-01-06T01:05:09;220.93;;;128.32;;
79646;SDS011;69119;41.718;21.786;2024-01-06T01:07:36;257.20;;;154.73;;
79646;SDS011;69119;41.718;21.786;2024-01-06T01:10:02;352.25;;;217.32;;
79646;SDS011;69119;41.718;21.786;2024-01-06T01:12:28;358.38;;;223.93;;
79646;SDS011;69119;41.718;21.786;2024-01-06T01:14:54;303.90;;;179.77;;
79646;SDS011;69119;41.718;21.786;2024-01-06T01:17:20;312.23;;;167.68;;
79646;SDS011;69119;41.718;21.786;2024-01-06T01:19:46;291.92;;;142.60;;
79646;SDS011;69119;41.718;21.786;2024-01-06T01:22:12;249.40;;;140.45;;
79646;SDS011;69119;41.718;21.786;2024-01-06T01:24:38;290.23;;;163.30;;
79646;SDS011;69119;41.718;21.786;2024-01-06T01:27:05;288.00;;;167.43;;
79646;SDS011;69119;41.718;21.786;2024-01-06T01:29:31;253.35;;;150.50;;
79646;SDS011;69119;41.718;21.786;2024-01-06T01:31:57;269.63;;;161.65;;
79646;SDS011;69119;41.718;21.786;2024-01-06T01:34:23;288.10;;;166.13;;
79646;SDS011;69119;41.718;21.786;2024-01-06T01:36:49;280.98;;;159.75;;
79646;SDS011;69119;41.718;21.786;2024-01-06T01:39:15;288.13;;;162.18;;
79646;SDS011;69119;41.718;21.786;2024-01-06T01:41:41;298.48;;;166.25;;
79646;SDS011;69119;41.718;21.786;2024-01-06T01:44:07;293.85;;;170.55;;
79646;SDS011;69119;41.718;21.786;2024-01-06T01:46:33;306.55;;;178.15;;
79646;SDS011;69119;41.718;21.786;2024-01-06T01:49:00;272.25;;;149.10;;
79646;SDS011;69119;41.718;21.786;2024-01-06T01:53:52;333.85;;;164.57;;
79646;SDS011;69119;41.718;21.786;2024-01-06T01:56:19;327.50;;;177.43;;
79646;SDS011;69119;41.718;21.786;2024-01-06T01:58:45;300.35;;;162.60;;
79646;SDS011;69119;41.718;21.786;2024-01-06T02:03:38;244.55;;;137.07;;
79646;SDS011;69119;41.718;21.786;2024-01-06T02:06:08;261.27;;;145.85;;
79646;SDS011;69119;41.718;21.786;2024-01-06T02:08:34;289.15;;;159.15;;
79646;SDS011;69119;41.718;21.786;2024-01-06T02:11:00;268.42;;;146.45;;
79646;SDS011;69119;41.718;21.786;2024-01-06T02:13:33;260.67;;;140.82;;
79646;SDS011;69119;41.718;21.786;2024-01-06T02:16:00;247.52;;;137.82;;
79646;SDS011;69119;41.718;21.786;2024-01-06T02:18:26;273.38;;;150.77;;
79646;SDS011;69119;41.718;21.786;2024-01-06T02:20:52;262.15;;;144.45;;
79646;SDS011;69119;41.718;21.786;2024-01-06T02:23:19;295.00;;;155.15;;
79646;SDS011;69119;41.718;21.786;2024-01-06T02:25:45;234.20;;;122.35;;
79646;SDS011;69119;41.718;21.786;2024-01-06T02:28:11;254.23;;;136.77;;
79646;SDS011;69119;41.718;21.786;2024-01-06T02:30:37;288.70;;;154.88;;
79646;SDS011;69119;41.718;21.786;2024-01-06T02:33:03;280.08;;;150.82;;
79646;SDS011;69119;41.718;21.786;2024-01-06T02:35:29;249.50;;;145.93;;
79646;SDS011;69119;41.718;21.786;2024-01-06T02:37:55;274.85;;;156.50;;
79646;SDS011;69119;41.718;21.786;2024-01-06T02:40:21;277.83;;;156.77;;
79646;SDS011;69119;41.718;21.786;2024-01-06T02:42:47;185.90;;;101.22;;
79646;SDS011;69119;41.718;21.786;2024-01-06T02:45:13;225.93;;;127.63;;
79646;SDS011;69119;41.718;21.786;2024-01-06T02:47:39;226.63;;;127.90;;
79646;SDS011;69119;41.718;21.786;2024-01-06T02:50:05;216.80;;;126.88;;
79646;SDS011;69119;41.718;21.786;2024-01-06T02:52:31;212.63;;;123.78;;
79646;SDS011;69119;41.718;21.786;2024-01-06T02:54:58;217.55;;;132.85;;
79646;SDS011;69119;41.718;21.786;2024-01-06T02:57:24;248.80;;;141.18;;
79646;SDS011;69119;41.718;21.786;2024-01-06T02:59:50;185.52;;;98.15;;
79646;SDS011;69119;41.718;21.786;2024-01-06T03:02:16;209.18;;;121.53;;
79646;SDS011;69119;41.718;21.786;2024-01-06T03:04:42;195.55;;;113.28;;
79646;SDS011;69119;41.718;21.786;2024-01-06T03:07:08;191.63;;;113.38;;
79646;SDS011;69119;41.718;21.786;2024-01-06T03:09:35;185.93;;;109.18;;
79646;SDS011;69119;41.718;21.786;2024-01-06T03:12:01;208.88;;;120.70;;
79646;SDS011;69119;41.718;21.786;2024-01-06T03:14:27;233.82;;;133.88;;
79646;SDS011;69119;41.718;21.786;2024-01-06T03:16:53;206.13;;;115.65;;
79646;SDS011;69119;41.718;21.786;2024-01-06T03:19:20;205.77;;;114.68;;
79646;SDS011;69119;41.718;21.786;2024-01-06T03:21:46;194.40;;;110.82;;
79646;SDS011;69119;41.718;21.786;2024-01-06T03:24:12;209.77;;;122.43;;
79646;SDS011;69119;41.718;21.786;2024-01-06T03:26:38;211.95;;;127.00;;
79646;SDS011;69119;41.718;21.786;2024-01-06T03:29:04;214.07;;;120.85;;
79646;SDS011;69119;41.718;21.786;2024-01-06T03:31:31;247.55;;;138.48;;
79646;SDS011;69119;41.718;21.786;2024-01-06T03:33:57;167.05;;;91.78;;
79646;SDS011;69119;41.718;21.786;2024-01-06T03:36:23;157.52;;;94.75;;
79646;SDS011;69119;41.718;21.786;2024-01-06T03:38:50;155.70;;;92.78;;
79646;SDS011;69119;41.718;21.786;2024-01-06T03:41:16;167.38;;;98.30;;
79646;SDS011;69119;41.718;21.786;2024-01-06T03:43:42;165.93;;;94.43;;
79646;SDS011;69119;41.718;21.786;2024-01-06T03:46:08;148.85;;;89.90;;
79646;SDS011;69119;41.718;21.786;2024-01-06T03:48:34;160.82;;;92.40;;
79646;SDS011;69119;41.718;21.786;2024-01-06T03:51:00;167.60;;;96.88;;
79646;SDS011;69119;41.718;21.786;2024-01-06T03:58:19;217.32;;;117.30;;
79646;SDS011;69119;41.718;21.786;2024-01-06T04:00:45;160.63;;;82.03;;
79646;SDS011;69119;41.718;21.786;2024-01-06T04:03:11;204.50;;;114.43;;
79646;SDS011;69119;41.718;21.786;2024-01-06T04:05:37;237.27;;;130.88;;
79646;SDS011;69119;41.718;21.786;2024-01-06T04:08:03;230.05;;;129.32;;
79646;SDS011;69119;41.718;21.786;2024-01-06T04:10:29;233.02;;;135.13;;
79646;SDS011;69119;41.718;21.786;2024-01-06T04:12:55;267.67;;;142.35;;
79646;SDS011;69119;41.718;21.786;2024-01-06T04:15:21;227.05;;;119.35;;
79646;SDS011;69119;41.718;21.786;2024-01-06T04:17:48;213.25;;;112.13;;
79646;SDS011;69119;41.718;21.786;2024-01-06T04:20:14;177.30;;;98.40;;
79646;SDS011;69119;41.718;21.786;2024-01-06T04:22:40;187.05;;;99.78;;
79646;SDS011;69119;41.718;21.786;2024-01-06T04:25:06;180.05;;;98.93;;
79646;SDS011;69119;41.718;21.786;2024-01-06T04:27:32;173.48;;;94.53;;
79646;SDS011;69119;41.718;21.786;2024-01-06T04:29:59;162.32;;;97.97;;
79646;SDS011;69119;41.718;21.786;2024-01-06T04:32:25;172.15;;;94.30;;
79646;SDS011;69119;41.718;21.786;2024-01-06T04:34:51;150.35;;;83.35;;
79646;SDS011;69119;41.718;21.786;2024-01-06T04:37:18;157.57;;;80.18;;
79646;SDS011;69119;41.718;21.786;2024-01-06T04:39:44;168.13;;;89.35;;
79646;SDS011;69119;41.718;21.786;2024-01-06T04:42:10;157.18;;;82.90;;
79646;SDS011;69119;41.718;21.786;2024-01-06T04:44:36;160.43;;;83.55;;
79646;SDS011;69119;41.718;21.786;2024-01-06T04:47:02;148.93;;;81.40;;
79646;SDS011;69119;41.718;21.786;2024-01-06T04:49:28;152.77;;;86.80;;
79646;SDS011;69119;41.718;21.786;2024-01-06T04:51:54;128.63;;;75.20;;
79646;SDS011;69119;41.718;21.786;2024-01-06T04:56:47;154.43;;;80.97;;
79646;SDS011;69119;41.718;21.786;2024-01-06T04:59:13;174.18;;;86.80;;
79646;SDS011;69119;41.718;21.786;2024-01-06T05:01:42;149.27;;;81.82;;
79646;SDS011;69119;41.718;21.786;2024-01-06T05:04:08;143.35;;;75.20;;
79646;SDS011;69119;41.718;21.786;2024-01-06T05:06:34;141.85;;;78.18;;
79646;SDS011;69119;41.718;21.786;2024-01-06T05:09:00;128.40;;;68.22;;
79646;SDS011;69119;41.718;21.786;2024-01-06T05:11:26;141.82;;;79.63;;
79646;SDS011;69119;41.718;21.786;2024-01-06T05:13:52;149.23;;;78.40;;
79646;SDS011;69119;41.718;21.786;2024-01-06T05:16:18;147.80;;;79.13;;
79646;SDS011;69119;41.718;21.786;2024-01-06T05:18:45;134.15;;;76.15;;
79646;SDS011;69119;41.718;21.786;2024-01-06T05:21:11;125.63;;;72.03;;
79646;SDS011;69119;41.718;21.786;2024-01-06T05:23:37;122.10;;;66.95;;
79646;SDS011;69119;41.718;21.786;2024-01-06T05:26:03;119.75;;;69.45;;
79646;SDS011;69119;41.718;21.786;2024-01-06T05:28:29;128.60;;;71.78;;
79646;SDS011;69119;41.718;21.786;2024-01-06T05:30:55;121.20;;;70.50;;
79646;SDS011;69119;41.718;21.786;2024-01-06T05:33:22;128.57;;;73.55;;
79646;SDS011;69119;41.718;21.786;2024-01-06T05:35:48;152.52;;;81.25;;
79646;SDS011;69119;41.718;21.786;2024-01-06T05:38:14;141.73;;;76.95;;
79646;SDS011;69119;41.718;21.786;2024-01-06T05:40:42;95.75;;;55.95;;
79646;SDS011;69119;41.718;21.786;2024-01-06T05:43:08;95.95;;;54.95;;
79646;SDS011;69119;41.718;21.786;2024-01-06T05:45:34;105.85;;;59.90;;
79646;SDS011;69119;41.718;21.786;2024-01-06T05:48:02;94.45;;;55.42;;
79646;SDS011;69119;41.718;21.786;2024-01-06T05:50:28;104.10;;;59.35;;
79646;SDS011;69119;41.718;21.786;2024-01-06T05:52:54;88.05;;;50.92;;
79646;SDS011;69119;41.718;21.786;2024-01-06T05:55:20;115.38;;;62.55;;
79646;SDS011;69119;41.718;21.786;2024-01-06T05:57:47;160.20;;;82.93;;
79646;SDS011;69119;41.718;21.786;2024-01-06T06:00:13;154.50;;;80.82;;
79646;SDS011;69119;41.718;21.786;2024-01-06T06:02:39;151.77;;;78.00;;
79646;SDS011;69119;41.718;21.786;2024-01-06T06:05:06;143.75;;;75.80;;
79646;SDS011;69119;41.718;21.786;2024-01-06T06:07:32;140.43;;;73.43;;
79646;SDS011;69119;41.718;21.786;2024-01-06T06:10:04;125.57;;;72.25;;
79646;SDS011;69119;41.718;21.786;2024-01-06T06:12:31;119.65;;;70.28;;
79646;SDS011;69119;41.718;21.786;2024-01-06T06:14:57;115.93;;;64.32;;
79646;SDS011;69119;41.718;21.786;2024-01-06T06:17:23;104.18;;;58.38;;
79646;SDS011;69119;41.718;21.786;2024-01-06T06:19:50;103.50;;;54.28;;
79646;SDS011;69119;41.718;21.786;2024-01-06T06:22:16;115.50;;;61.38;;
79646;SDS011;69119;41.718;21.786;2024-01-06T06:24:43;134.48;;;72.95;;
79646;SDS011;69119;41.718;21.786;2024-01-06T06:27:09;130.45;;;71.97;;
79646;SDS011;69119;41.718;21.786;2024-01-06T06:29:35;118.50;;;66.15;;
79646;SDS011;69119;41.718;21.786;2024-01-06T06:32:01;108.10;;;59.92;;
79646;SDS011;69119;41.718;21.786;2024-01-06T06:34:27;113.50;;;62.35;;
79646;SDS011;69119;41.718;21.786;2024-01-06T06:36:53;166.32;;;82.40;;
79646;SDS011;69119;41.718;21.786;2024-01-06T06:39:19;155.48;;;81.43;;
79646;SDS011;69119;41.718;21.786;2024-01-06T06:41:45;104.43;;;56.38;;
79646;SDS011;69119;41.718;21.786;2024-01-06T06:44:11;111.00;;;62.63;;
79646;SDS011;69119;41.718;21.786;2024-01-06T06:46:37;111.60;;;60.95;;
79646;SDS011;69119;41.718;21.786;2024-01-06T06:49:03;95.97;;;52.00;;
79646;SDS011;69119;41.718;21.786;2024-01-06T06:51:30;131.63;;;66.57;;
79646;SDS011;69119;41.718;21.786;2024-01-06T06:53:56;129.65;;;67.05;;
79646;SDS011;69119;41.718;21.786;2024-01-06T06:56:22;106.75;;;60.53;;
79646;SDS011;69119;41.718;21.786;2024-01-06T06:58:49;115.53;;;59.50;;
79646;SDS011;69119;41.718;21.786;2024-01-06T07:01:15;119.28;;;64.43;;
79646;SDS011;69119;41.718;21.786;2024-01-06T07:03:41;123.90;;;60.10;;
79646;SDS011;69119;41.718;21.786;2024-01-06T07:06:07;127.70;;;63.47;;
79646;SDS011;69119;41.718;21.786;2024-01-06T07:08:34;100.70;;;53.05;;
79646;SDS011;69119;41.718;21.786;2024-01-06T07:11:00;102.95;;;55.67;;
79646;SDS011;69119;41.718;21.786;2024-01-06T07:13:26;79.97;;;46.50;;
79646;SDS011;69119;41.718;21.786;2024-01-06T07:15:52;88.07;;;47.78;;
79646;SDS011;69119;41.718;21.786;2024-01-06T07:18:18;84.38;;;47.10;;
79646;SDS011;69119;41.718;21.786;2024-01-06T07:20:48;115.70;;;57.28;;
79646;SDS011;69119;41.718;21.786;2024-01-06T07:23:14;120.68;;;62.92;;
79646;SDS011;69119;41.718;21.786;2024-01-06T07:25:40;102.20;;;53.08;;
79646;SDS011;69119;41.718;21.786;2024-01-06T07:28:06;95.10;;;55.55;;
79646;SDS011;69119;41.718;21.786;2024-01-06T07:30:33;92.28;;;54.85;;
79646;SDS011;69119;41.718;21.786;2024-01-06T07:32:59;128.40;;;63.83;;
79646;SDS011;69119;41.718;21.786;2024-01-06T07:35:25;105.72;;;60.05;;
79646;SDS011;69119;41.718;21.786;2024-01-06T07:37:51;77.78;;;48.60;;
79646;SDS011;69119;41.718;21.786;2024-01-06T07:40:18;83.95;;;48.20;;
79646;SDS011;69119;41.718;21.786;2024-01-06T07:42:44;84.85;;;43.47;;
79646;SDS011;69119;41.718;21.786;2024-01-06T07:45:10;65.82;;;38.03;;
79646;SDS011;69119;41.718;21.786;2024-01-06T07:47:38;80.10;;;42.38;;
79646;SDS011;69119;41.718;21.786;2024-01-06T07:50:04;68.53;;;39.38;;
79646;SDS011;69119;41.718;21.786;2024-01-06T07:52:30;65.82;;;40.13;;
79646;SDS011;69119;41.718;21.786;2024-01-06T07:54:57;60.38;;;34.90;;
79646;SDS011;69119;41.718;21.786;2024-01-06T07:57:23;67.90;;;40.40;;
79646;SDS011;69119;41.718;21.786;2024-01-06T07:59:49;56.00;;;35.58;;
79646;SDS011;69119;41.718;21.786;2024-01-06T08:02:16;93.82;;;52.10;;
79646;SDS011;69119;41.718;21.786;2024-01-06T08:04:42;91.05;;;51.05;;
79646;SDS011;69119;41.718;21.786;2024-01-06T08:07:08;86.47;;;47.75;;
79646;SDS011;69119;41.718;21.786;2024-01-06T08:09:34;79.70;;;44.25;;
79646;SDS011;69119;41.718;21.786;2024-01-06T08:12:01;62.03;;;35.47;;
79646;SDS011;69119;41.718;21.786;2024-01-06T08:14:28;52.60;;;33.10;;
79646;SDS011;69119;41.718;21.786;2024-01-06T08:16:54;53.03;;;33.67;;
79646;SDS011;69119;41.718;21.786;2024-01-06T08:19:20;49.10;;;32.45;;
79646;SDS011;69119;41.718;21.786;2024-01-06T08:21:46;62.42;;;40.65;;
79646;SDS011;69119;41.718;21.786;2024-01-06T08:24:13;69.10;;;40.95;;
79646;SDS011;69119;41.718;21.786;2024-01-06T08:26:39;56.08;;;33.45;;
79646;SDS011;69119;41.718;21.786;2024-01-06T08:29:05;55.00;;;36.45;;
79646;SDS011;69119;41.718;21.786;2024-01-06T08:31:31;57.15;;;33.95;;
79646;SDS011;69119;41.718;21.786;2024-01-06T08:33:58;54.83;;;35.78;;
79646;SDS011;69119;41.718;21.786;2024-01-06T08:36:24;56.30;;;35.72;;
79646;SDS011;69119;41.718;21.786;2024-01-06T08:38:50;61.38;;;36.65;;
79646;SDS011;69119;41.718;21.786;2024-01-06T08:41:16;69.05;;;40.40;;
79646;SDS011;69119;41.718;21.786;2024-01-06T08:43:42;52.15;;;32.88;;
79646;SDS011;69119;41.718;21.786;2024-01-06T08:46:08;54.25;;;38.42;;
79646;SDS011;69119;41.718;21.786;2024-01-06T08:48:35;56.53;;;36.38;;
79646;SDS011;69119;41.718;21.786;2024-01-06T08:51:01;57.47;;;37.03;;
79646;SDS011;69119;41.718;21.786;2024-01-06T08:53:27;55.17;;;39.00;;
79646;SDS011;69119;41.718;21.786;2024-01-06T08:55:53;55.08;;;37.85;;
79646;SDS011;69119;41.718;21.786;2024-01-06T08:58:19;57.83;;;40.70;;
79646;SDS011;69119;41.718;21.786;2024-01-06T09:00:45;63.83;;;43.53;;
79646;SDS011;69119;41.718;21.786;2024-01-06T09:03:11;101.30;;;65.43;;
79646;SDS011;69119;41.718;21.786;2024-01-06T09:05:37;102.68;;;68.03;;
79646;SDS011;69119;41.718;21.786;2024-01-06T09:08:03;70.72;;;46.85;;
79646;SDS011;69119;41.718;21.786;2024-01-06T09:10:29;61.90;;;42.97;;
79646;SDS011;69119;41.718;21.786;2024-01-06T09:12:56;63.67;;;39.75;;
79646;SDS011;69119;41.718;21.786;2024-01-06T09:15:22;66.53;;;42.78;;
79646;SDS011;69119;41.718;21.786;2024-01-06T09:17:48;88.93;;;51.70;;
79646;SDS011;69119;41.718;21.786;2024-01-06T09:20:14;85.60;;;48.10;;
79646;SDS011;69119;41.718;21.786;2024-01-06T09:22:42;91.50;;;51.85;;
79646;SDS011;69119;41.718;21.786;2024-01-06T09:25:08;86.63;;;53.50;;
79646;SDS011;69119;41.718;21.786;2024-01-06T09:27:34;74.70;;;49.83;;
79646;SDS011;69119;41.718;21.786;2024-01-06T09:30:00;64.03;;;40.30;;
79646;SDS011;69119;41.718;21.786;2024-01-06T09:32:26;66.57;;;41.28;;
79646;SDS011;69119;41.718;21.786;2024-01-06T09:34:52;53.92;;;35.45;;
79646;SDS011;69119;41.718;21.786;2024-01-06T09:39:45;62.70;;;39.25;;
79646;SDS011;69119;41.718;21.786;2024-01-06T09:42:11;73.60;;;47.33;;
79646;SDS011;69119;41.718;21.786;2024-01-06T09:44:37;75.70;;;46.10;;
79646;SDS011;69119;41.718;21.786;2024-01-06T09:47:03;72.85;;;44.25;;
79646;SDS011;69119;41.718;21.786;2024-01-06T09:49:30;70.05;;;44.25;;
79646;SDS011;69119;41.718;21.786;2024-01-06T09:51:58;72.63;;;43.72;;
79646;SDS011;69119;41.718;21.786;2024-01-06T09:54:24;266.73;;;131.82;;
79646;SDS011;69119;41.718;21.786;2024-01-06T09:56:51;149.48;;;89.18;;
79646;SDS011;69119;41.718;21.786;2024-01-06T09:59:17;131.93;;;71.95;;
79646;SDS011;69119;41.718;21.786;2024-01-06T10:01:46;136.32;;;74.10;;
79646;SDS011;69119;41.718;21.786;2024-01-06T10:04:14;114.85;;;63.33;;
79646;SDS011;69119;41.718;21.786;2024-01-06T10:06:41;113.38;;;64.22;;
79646;SDS011;69119;41.718;21.786;2024-01-06T10:09:07;96.82;;;55.13;;
79646;SDS011;69119;41.718;21.786;2024-01-06T10:11:35;84.57;;;53.10;;
79646;SDS011;69119;41.718;21.786;2024-01-06T10:14:02;84.32;;;52.55;;
79646;SDS011;69119;41.718;21.786;2024-01-06T10:16:29;84.13;;;54.13;;
79646;SDS011;69119;41.718;21.786;2024-01-06T10:18:55;81.82;;;54.33;;
79646;SDS011;69119;41.718;21.786;2024-01-06T10:21:21;89.53;;;56.28;;
79646;SDS011;69119;41.718;21.786;2024-01-06T10:23:47;87.05;;;52.28;;
79646;SDS011;69119;41.718;21.786;2024-01-06T10:26:14;98.80;;;63.30;;
79646;SDS011;69119;41.718;21.786;2024-01-06T10:28:40;113.68;;;72.07;;
79646;SDS011;69119;41.718;21.786;2024-01-06T10:31:07;119.70;;;74.80;;
79646;SDS011;69119;41.718;21.786;2024-01-06T10:33:33;134.40;;;83.93;;
79646;SDS011;69119;41.718;21.786;2024-01-06T10:36:00;134.15;;;83.80;;
79646;SDS011;69119;41.718;21.786;2024-01-06T10:38:28;205.52;;;115.97;;
79646;SDS011;69119;41.718;21.786;2024-01-06T10:43:27;135.23;;;84.30;;
79646;SDS011;69119;41.718;21.786;2024-01-06T10:46:00;126.78;;;73.38;;
79646;SDS011;69119;41.718;21.786;2024-01-06T10:48:32;109.13;;;66.50;;
79646;SDS011;69119;41.718;21.786;2024-01-06T10:50:59;107.22;;;68.30;;
79646;SDS011;69119;41.718;21.786;2024-01-06T10:53:26;125.68;;;80.57;;
79646;SDS011;69119;41.718;21.786;2024-01-06T10:55:52;113.78;;;69.40;;
79646;SDS011;69119;41.718;21.786;2024-01-06T10:58:19;110.47;;;69.10;;
79646;SDS011;69119;41.718;21.786;2024-01-06T11:00:45;126.22;;;74.40;;
79646;SDS011;69119;41.718;21.786;2024-01-06T11:03:13;105.43;;;65.55;;
79646;SDS011;69119;41.718;21.786;2024-01-06T11:05:40;100.22;;;65.55;;
79646;SDS011;69119;41.718;21.786;2024-01-06T11:08:07;101.50;;;66.20;;
79646;SDS011;69119;41.718;21.786;2024-01-06T11:10:33;103.30;;;70.18;;
79646;SDS011;69119;41.718;21.786;2024-01-06T11:13:11;118.53;;;75.82;;
79646;SDS011;69119;41.718;21.786;2024-01-06T11:21:18;137.70;;;90.93;;
79646;SDS011;69119;41.718;21.786;2024-01-06T11:26:32;100.13;;;63.90;;
79646;SDS011;69119;41.718;21.786;2024-01-06T11:28:58;92.10;;;60.15;;
79646;SDS011;69119;41.718;21.786;2024-01-06T11:31:31;94.70;;;60.78;;
79646;SDS011;69119;41.718;21.786;2024-01-06T11:34:11;93.97;;;60.05;;
79646;SDS011;69119;41.718;21.786;2024-01-06T11:36:38;92.50;;;60.50;;
79646;SDS011;69119;41.718;21.786;2024-01-06T11:39:05;88.88;;;58.75;;
79646;SDS011;69119;41.718;21.786;2024-01-06T11:43:57;93.97;;;60.20;;
79646;SDS011;69119;41.718;21.786;2024-01-06T11:46:23;138.30;;;84.75;;
79646;SDS011;69119;41.718;21.786;2024-01-06T11:48:50;150.90;;;91.75;;
79646;SDS011;69119;41.718;21.786;2024-01-06T11:51:18;117.35;;;70.35;;
79646;SDS011;69119;41.718;21.786;2024-01-06T11:53:44;119.85;;;68.95;;
79646;SDS011;69119;41.718;21.786;2024-01-06T11:56:11;105.25;;;57.78;;
79646;SDS011;69119;41.718;21.786;2024-01-06T11:58:40;98.97;;;60.67;;
79646;SDS011;69119;41.718;21.786;2024-01-06T12:01:07;78.18;;;50.47;;
79646;SDS011;69119;41.718;21.786;2024-01-06T12:03:33;79.05;;;49.75;;
79646;SDS011;69119;41.718;21.786;2024-01-06T12:06:00;71.25;;;44.17;;
79646;SDS011;69119;41.718;21.786;2024-01-06T12:08:31;83.78;;;50.80;;
79646;SDS011;69119;41.718;21.786;2024-01-06T12:11:03;83.38;;;50.90;;
79646;SDS011;69119;41.718;21.786;2024-01-06T12:13:29;73.60;;;47.95;;
79646;SDS011;69119;41.718;21.786;2024-01-06T12:15:55;97.50;;;57.13;;
79646;SDS011;69119;41.718;21.786;2024-01-06T12:18:22;115.88;;;67.80;;
79646;SDS011;69119;41.718;21.786;2024-01-06T12:20:52;112.03;;;69.32;;
79646;SDS011;69119;41.718;21.786;2024-01-06T12:23:25;136.50;;;80.40;;
79646;SDS011;69119;41.718;21.786;2024-01-06T12:25:52;156.85;;;98.53;;
79646;SDS011;69119;41.718;21.786;2024-01-06T12:28:18;164.88;;;94.43;;
79646;SDS011;69119;41.718;21.786;2024-01-06T12:30:44;130.05;;;78.85;;
79646;SDS011;69119;41.718;21.786;2024-01-06T12:33:10;140.18;;;79.88;;
79646;SDS011;69119;41.718;21.786;2024-01-06T12:35:37;202.77;;;119.35;;
79646;SDS011;69119;41.718;21.786;2024-01-06T12:38:03;192.60;;;111.68;;
79646;SDS011;69119;41.718;21.786;2024-01-06T12:40:32;115.85;;;71.13;;
79646;SDS011;69119;41.718;21.786;2024-01-06T12:42:58;43.97;;;26.60;;
79646;SDS011;69119;41.718;21.786;2024-01-06T12:45:24;25.33;;;11.32;;
79646;SDS011;69119;41.718;21.786;2024-01-06T12:47:52;29.35;;;18.48;;
79646;SDS011;69119;41.718;21.786;2024-01-06T12:52:45;42.03;;;24.73;;
79646;SDS011;69119;41.718;21.786;2024-01-06T12:55:11;33.78;;;21.40;;
79646;SDS011;69119;41.718;21.786;2024-01-06T12:57:37;34.33;;;21.65;;
79646;SDS011;69119;41.718;21.786;2024-01-06T13:00:03;35.88;;;24.35;;
79646;SDS011;69119;41.718;21.786;2024-01-06T13:02:32;34.85;;;22.23;;
79646;SDS011;69119;41.718;21.786;2024-01-06T13:04:59;40.67;;;27.42;;
79646;SDS011;69119;41.718;21.786;2024-01-06T13:07:25;45.63;;;29.20;;
79646;SDS011;69119;41.718;21.786;2024-01-06T13:09:51;33.58;;;20.75;;
79646;SDS011;69119;41.718;21.786;2024-01-06T13:12:17;63.97;;;42.50;;
79646;SDS011;69119;41.718;21.786;2024-01-06T13:14:43;43.10;;;28.17;;
79646;SDS011;69119;41.718;21.786;2024-01-06T13:17:12;47.10;;;32.05;;
79646;SDS011;69119;41.718;21.786;2024-01-06T13:19:39;38.38;;;25.13;;
79646;SDS011;69119;41.718;21.786;2024-01-06T13:22:05;36.00;;;23.73;;
79646;SDS011;69119;41.718;21.786;2024-01-06T13:24:32;32.90;;;20.30;;
79646;SDS011;69119;41.718;21.786;2024-01-06T13:26:58;26.95;;;16.13;;
79646;SDS011;69119;41.718;21.786;2024-01-06T13:29:27;31.65;;;17.38;;
79646;SDS011;69119;41.718;21.786;2024-01-06T13:31:53;21.25;;;13.40;;
79646;SDS011;69119;41.718;21.786;2024-01-06T13:34:20;29.27;;;17.40;;
79646;SDS011;69119;41.718;21.786;2024-01-06T13:36:46;22.95;;;12.77;;
79646;SDS011;69119;41.718;21.786;2024-01-06T13:39:12;21.83;;;12.05;;
79646;SDS011;69119;41.718;21.786;2024-01-06T13:41:47;20.58;;;13.35;;
79646;SDS011;69119;41.718;21.786;2024-01-06T13:44:14;20.67;;;11.32;;
79646;SDS011;69119;41.718;21.786;2024-01-06T13:46:40;15.00;;;8.13;;
79646;SDS011;69119;41.718;21.786;2024-01-06T13:49:10;16.83;;;9.43;;
79646;SDS011;69119;41.718;21.786;2024-01-06T13:51:39;20.23;;;11.30;;
79646;SDS011;69119;41.718;21.786;2024-01-06T13:56:32;25.00;;;13.98;;
79646;SDS011;69119;41.718;21.786;2024-01-06T13:58:58;27.58;;;17.02;;
79646;SDS011;69119;41.718;21.786;2024-01-06T14:01:24;25.05;;;13.93;;
79646;SDS011;69119;41.718;21.786;2024-01-06T14:03:50;42.40;;;32.88;;
79646;SDS011;69119;41.718;21.786;2024-01-06T14:06:25;33.15;;;19.00;;
79646;SDS011;69119;41.718;21.786;2024-01-06T14:08:55;29.88;;;19.85;;
79646;SDS011;69119;41.718;21.786;2024-01-06T14:11:22;23.55;;;11.82;;
79646;SDS011;69119;41.718;21.786;2024-01-06T14:13:48;24.88;;;12.88;;
79646;SDS011;69119;41.718;21.786;2024-01-06T14:16:15;31.75;;;15.98;;
79646;SDS011;69119;41.718;21.786;2024-01-06T14:21:08;36.72;;;20.52;;
79646;SDS011;69119;41.718;21.786;2024-01-06T14:23:34;30.02;;;15.13;;
79646;SDS011;69119;41.718;21.786;2024-01-06T14:26:00;54.97;;;34.15;;
79646;SDS011;69119;41.718;21.786;2024-01-06T14:28:26;37.38;;;21.23;;
79646;SDS011;69119;41.718;21.786;2024-01-06T14:30:52;28.58;;;14.82;;